sensor_id;sensor_type;location;lat;lon;timestamp;temperature;humidity
7307;DHT22;3694;48.732;9.248;2023-03-03T00:00:41;0.30;99.90
7307;DHT22;3694;48.732;9.248;2023-03-03T00:03:09;0.10;99.90
7307;DHT22;3694;48.732;9.248;2023-03-03T00:05:35;0.00;99.90
7307;DHT22;3694;48.732;9.248;2023-03-03T00:08:02;-0.10;99.90
7307;DHT22;3694;48.732;9.248;2023-03-03T00:10:28;-0.10;99.90
7307;DHT22;3694;48.732;9.248;2023-03-03T00:12:54;-0.10;99.90
7307;DHT22;3694;48.732;9.248;2023-03-03T00:15:24;-0.20;99.90
7307;DHT22;3694;48.732;9.248;2023-03-03T00:17:50;-0.40;99.90
7307;DHT22;3694;48.732;9.248;2023-03-03T00:20:36;-0.60;99.90
7307;DHT22;3694;48.732;9.248;2023-03-03T00:23:14;-0.70;99.90
7307;DHT22;3694;48.732;9.248;2023-03-03T00:25:43;-0.70;99.90
7307;DHT22;3694;48.732;9.248;2023-03-03T00:28:30;-0.80;99.90
7307;DHT22;3694;48.732;9.248;2023-03-03T00:30:59;-0.80;99.90
7307;DHT22;3694;48.732;9.248;2023-03-03T00:33:33;-0.80;99.90
7307;DHT22;3694;48.732;9.248;2023-03-03T00:38:41;-1.20;99.90
7307;DHT22;3694;48.732;9.248;2023-03-03T00:41:22;-1.20;99.90
7307;DHT22;3694;48.732;9.248;2023-03-03T00:43:49;-1.20;99.90
7307;DHT22;3694;48.732;9.248;2023-03-03T00:46:22;-1.10;99.90
7307;DHT22;3694;48.732;9.248;2023-03-03T00:48:49;-1.30;99.90
7307;DHT22;3694;48.732;9.248;2023-03-03T00:53:47;-1.40;99.90
7307;DHT22;3694;48.732;9.248;2023-03-03T00:56:13;-1.40;99.90
7307;DHT22;3694;48.732;9.248;2023-03-03T00:58:38;-1.40;99.90
7307;DHT22;3694;48.732;9.248;2023-03-03T01:01:04;-1.50;99.90
7307;DHT22;3694;48.732;9.248;2023-03-03T01:03:29;-1.50;99.90
7307;DHT22;3694;48.732;9.248;2023-03-03T01:05:55;-1.50;99.90
7307;DHT22;3694;48.732;9.248;2023-03-03T01:08:21;-1.60;99.90
7307;DHT22;3694;48.732;9.248;2023-03-03T01:10:49;-1.60;99.90
7307;DHT22;3694;48.732;9.248;2023-03-03T01:13:15;-1.70;99.90
7307;DHT22;3694;48.732;9.248;2023-03-03T01:15:41;-1.70;99.90
7307;DHT22;3694;48.732;9.248;2023-03-03T01:18:08;-1.80;99.90
7307;DHT22;3694;48.732;9.248;2023-03-03T01:20:34;-1.70;99.90
7307;DHT22;3694;48.732;9.248;2023-03-03T01:22:59;-1.80;99.90
7307;DHT22;3694;48.732;9.248;2023-03-03T01:25:25;-1.80;99.90
7307;DHT22;3694;48.732;9.248;2023-03-03T01:27:50;-1.90;99.90
7307;DHT22;3694;48.732;9.248;2023-03-03T01:30:16;-1.90;99.90
7307;DHT22;3694;48.732;9.248;2023-03-03T01:32:41;-1.90;99.90
7307;DHT22;3694;48.732;9.248;2023-03-03T01:35:07;-1.90;99.90
7307;DHT22;3694;48.732;9.248;2023-03-03T01:37:34;-1.90;99.90
7307;DHT22;3694;48.732;9.248;2023-03-03T01:40:00;-1.80;99.90
7307;DHT22;3694;48.732;9.248;2023-03-03T01:42:26;-1.90;99.90
7307;DHT22;3694;48.732;9.248;2023-03-03T01:45:15;-1.80;99.90
7307;DHT22;3694;48.732;9.248;2023-03-03T01:48:08;-1.90;99.90
7307;DHT22;3694;48.732;9.248;2023-03-03T01:51:05;-1.80;99.90
7307;DHT22;3694;48.732;9.248;2023-03-03T01:54:04;-1.90;99.90
7307;DHT22;3694;48.732;9.248;2023-03-03T01:56:30;-1.80;99.90
7307;DHT22;3694;48.732;9.248;2023-03-03T01:59:23;-1.90;99.90
7307;DHT22;3694;48.732;9.248;2023-03-03T02:01:50;-1.90;99.90
7307;DHT22;3694;48.732;9.248;2023-03-03T02:04:17;-1.80;99.90
7307;DHT22;3694;48.732;9.248;2023-03-03T02:06:46;-1.90;99.90
7307;DHT22;3694;48.732;9.248;2023-03-03T02:09:30;-1.90;99.90
7307;DHT22;3694;48.732;9.248;2023-03-03T02:12:00;-1.90;99.90
7307;DHT22;3694;48.732;9.248;2023-03-03T02:14:26;-1.90;99.90
7307;DHT22;3694;48.732;9.248;2023-03-03T02:16:51;-2.00;99.90
7307;DHT22;3694;48.732;9.248;2023-03-03T02:21:51;-2.00;99.90
7307;DHT22;3694;48.732;9.248;2023-03-03T02:24:32;-2.00;99.90
7307;DHT22;3694;48.732;9.248;2023-03-03T02:26:59;-1.90;99.90
7307;DHT22;3694;48.732;9.248;2023-03-03T02:29:25;-1.90;99.90
7307;DHT22;3694;48.732;9.248;2023-03-03T02:31:50;-1.90;99.90
7307;DHT22;3694;48.732;9.248;2023-03-03T02:34:16;-2.00;99.90
7307;DHT22;3694;48.732;9.248;2023-03-03T02:36:42;-2.00;99.90
7307;DHT22;3694;48.732;9.248;2023-03-03T02:39:17;-1.90;99.90
7307;DHT22;3694;48.732;9.248;2023-03-03T02:44:24;-1.90;99.90
7307;DHT22;3694;48.732;9.248;2023-03-03T02:46:51;-1.70;99.90
7307;DHT22;3694;48.732;9.248;2023-03-03T02:49:20;-1.60;99.90
7307;DHT22;3694;48.732;9.248;2023-03-03T02:51:46;-1.40;99.90
7307;DHT22;3694;48.732;9.248;2023-03-03T02:54:13;-1.10;99.90
7307;DHT22;3694;48.732;9.248;2023-03-03T02:56:39;-1.10;99.90
7307;DHT22;3694;48.732;9.248;2023-03-03T02:59:05;-0.90;99.90
7307;DHT22;3694;48.732;9.248;2023-03-03T03:01:31;-0.60;99.90
7307;DHT22;3694;48.732;9.248;2023-03-03T03:04:03;-0.70;99.90
7307;DHT22;3694;48.732;9.248;2023-03-03T03:06:29;-0.60;99.90
7307;DHT22;3694;48.732;9.248;2023-03-03T03:08:55;-0.60;99.90
7307;DHT22;3694;48.732;9.248;2023-03-03T03:11:20;-0.50;99.90
7307;DHT22;3694;48.732;9.248;2023-03-03T03:13:46;-0.40;99.90
7307;DHT22;3694;48.732;9.248;2023-03-03T03:16:11;-0.40;99.90
7307;DHT22;3694;48.732;9.248;2023-03-03T03:18:37;-0.20;99.90
7307;DHT22;3694;48.732;9.248;2023-03-03T03:21:07;-0.20;99.90
7307;DHT22;3694;48.732;9.248;2023-03-03T03:23:33;0.00;99.90
7307;DHT22;3694;48.732;9.248;2023-03-03T03:25:59;0.00;99.90
7307;DHT22;3694;48.732;9.248;2023-03-03T03:28:24;0.10;99.90
7307;DHT22;3694;48.732;9.248;2023-03-03T03:30:50;0.30;99.90
7307;DHT22;3694;48.732;9.248;2023-03-03T03:33:16;0.40;99.90
7307;DHT22;3694;48.732;9.248;2023-03-03T03:35:41;0.40;99.90
7307;DHT22;3694;48.732;9.248;2023-03-03T03:38:10;0.50;99.90
7307;DHT22;3694;48.732;9.248;2023-03-03T03:40:36;0.60;99.90
7307;DHT22;3694;48.732;9.248;2023-03-03T03:43:01;0.70;99.90
7307;DHT22;3694;48.732;9.248;2023-03-03T03:45:27;0.80;99.90
7307;DHT22;3694;48.732;9.248;2023-03-03T03:47:52;0.80;99.90
7307;DHT22;3694;48.732;9.248;2023-03-03T03:50:18;0.70;99.90
7307;DHT22;3694;48.732;9.248;2023-03-03T03:52:44;0.70;99.90
7307;DHT22;3694;48.732;9.248;2023-03-03T03:55:09;0.80;99.90
7307;DHT22;3694;48.732;9.248;2023-03-03T03:57:35;0.70;99.90
7307;DHT22;3694;48.732;9.248;2023-03-03T04:00:01;0.70;99.90
7307;DHT22;3694;48.732;9.248;2023-03-03T04:02:26;0.80;99.90
7307;DHT22;3694;48.732;9.248;2023-03-03T04:04:52;0.80;99.90
7307;DHT22;3694;48.732;9.248;2023-03-03T04:07:17;0.80;99.90
7307;DHT22;3694;48.732;9.248;2023-03-03T04:09:43;0.80;99.90
7307;DHT22;3694;48.732;9.248;2023-03-03T04:12:08;0.70;99.90
7307;DHT22;3694;48.732;9.248;2023-03-03T04:14:34;0.90;99.90
7307;DHT22;3694;48.732;9.248;2023-03-03T04:16:59;0.70;99.90
7307;DHT22;3694;48.732;9.248;2023-03-03T04:19:25;0.70;99.90
7307;DHT22;3694;48.732;9.248;2023-03-03T04:21:50;0.60;99.90
7307;DHT22;3694;48.732;9.248;2023-03-03T04:24:16;0.70;99.90
7307;DHT22;3694;48.732;9.248;2023-03-03T04:26:43;0.70;99.90
7307;DHT22;3694;48.732;9.248;2023-03-03T04:29:09;0.70;99.90
7307;DHT22;3694;48.732;9.248;2023-03-03T04:31:34;0.70;99.90
7307;DHT22;3694;48.732;9.248;2023-03-03T04:34:00;0.70;99.90
7307;DHT22;3694;48.732;9.248;2023-03-03T04:36:25;0.70;99.90
7307;DHT22;3694;48.732;9.248;2023-03-03T04:38:51;0.70;99.90
7307;DHT22;3694;48.732;9.248;2023-03-03T04:41:17;0.70;99.90
7307;DHT22;3694;48.732;9.248;2023-03-03T04:43:42;0.70;99.90
7307;DHT22;3694;48.732;9.248;2023-03-03T04:46:08;0.70;99.90
7307;DHT22;3694;48.732;9.248;2023-03-03T04:48:33;0.60;99.90
7307;DHT22;3694;48.732;9.248;2023-03-03T04:50:59;0.80;99.90
7307;DHT22;3694;48.732;9.248;2023-03-03T04:53:24;0.80;99.90
7307;DHT22;3694;48.732;9.248;2023-03-03T04:55:51;0.90;99.90
7307;DHT22;3694;48.732;9.248;2023-03-03T04:58:17;0.90;99.90
7307;DHT22;3694;48.732;9.248;2023-03-03T05:00:53;0.80;99.90
7307;DHT22;3694;48.732;9.248;2023-03-03T05:03:19;0.80;99.90
7307;DHT22;3694;48.732;9.248;2023-03-03T05:05:46;0.90;99.90
7307;DHT22;3694;48.732;9.248;2023-03-03T05:08:12;0.90;99.90
7307;DHT22;3694;48.732;9.248;2023-03-03T05:10:37;0.90;99.90
7307;DHT22;3694;48.732;9.248;2023-03-03T05:13:04;1.00;99.90
7307;DHT22;3694;48.732;9.248;2023-03-03T05:15:29;1.00;99.90
7307;DHT22;3694;48.732;9.248;2023-03-03T05:17:55;0.90;99.90
7307;DHT22;3694;48.732;9.248;2023-03-03T05:20:22;0.90;99.90
7307;DHT22;3694;48.732;9.248;2023-03-03T05:22:47;0.90;99.90
7307;DHT22;3694;48.732;9.248;2023-03-03T05:25:13;0.90;99.90
7307;DHT22;3694;48.732;9.248;2023-03-03T05:27:39;0.90;99.90
7307;DHT22;3694;48.732;9.248;2023-03-03T05:30:05;0.80;99.90
7307;DHT22;3694;48.732;9.248;2023-03-03T05:32:31;0.80;99.90
7307;DHT22;3694;48.732;9.248;2023-03-03T05:34:57;0.90;99.90
7307;DHT22;3694;48.732;9.248;2023-03-03T05:37:22;0.90;99.90
7307;DHT22;3694;48.732;9.248;2023-03-03T05:39:48;0.90;99.90
7307;DHT22;3694;48.732;9.248;2023-03-03T05:42:14;0.90;99.90
7307;DHT22;3694;48.732;9.248;2023-03-03T05:44:40;0.90;99.90
7307;DHT22;3694;48.732;9.248;2023-03-03T05:47:05;0.90;99.90
7307;DHT22;3694;48.732;9.248;2023-03-03T05:49:31;1.00;99.90
7307;DHT22;3694;48.732;9.248;2023-03-03T05:51:56;1.10;99.90
7307;DHT22;3694;48.732;9.248;2023-03-03T05:54:23;1.10;99.90
7307;DHT22;3694;48.732;9.248;2023-03-03T05:56:49;1.10;99.90
7307;DHT22;3694;48.732;9.248;2023-03-03T05:59:17;1.10;99.90
7307;DHT22;3694;48.732;9.248;2023-03-03T06:01:44;1.10;99.90
7307;DHT22;3694;48.732;9.248;2023-03-03T06:04:09;1.10;99.90
7307;DHT22;3694;48.732;9.248;2023-03-03T06:06:35;1.10;99.90
7307;DHT22;3694;48.732;9.248;2023-03-03T06:09:01;1.10;99.90
7307;DHT22;3694;48.732;9.248;2023-03-03T06:11:26;1.10;99.90
7307;DHT22;3694;48.732;9.248;2023-03-03T06:13:52;1.20;99.90
7307;DHT22;3694;48.732;9.248;2023-03-03T06:16:18;1.10;99.90
7307;DHT22;3694;48.732;9.248;2023-03-03T06:18:43;1.10;99.90
7307;DHT22;3694;48.732;9.248;2023-03-03T06:21:09;1.00;99.90
7307;DHT22;3694;48.732;9.248;2023-03-03T06:23:34;1.00;99.90
7307;DHT22;3694;48.732;9.248;2023-03-03T06:26:00;1.00;99.90
7307;DHT22;3694;48.732;9.248;2023-03-03T06:28:25;1.00;99.90
7307;DHT22;3694;48.732;9.248;2023-03-03T06:30:55;1.10;99.90
7307;DHT22;3694;48.732;9.248;2023-03-03T06:33:21;1.10;99.90
7307;DHT22;3694;48.732;9.248;2023-03-03T06:35:51;1.10;99.90
7307;DHT22;3694;48.732;9.248;2023-03-03T06:38:17;1.20;99.90
7307;DHT22;3694;48.732;9.248;2023-03-03T06:40:44;1.20;99.90
7307;DHT22;3694;48.732;9.248;2023-03-03T06:43:09;1.30;99.90
7307;DHT22;3694;48.732;9.248;2023-03-03T06:45:35;1.30;99.90
7307;DHT22;3694;48.732;9.248;2023-03-03T06:48:00;1.30;99.90
7307;DHT22;3694;48.732;9.248;2023-03-03T06:50:26;1.40;99.90
7307;DHT22;3694;48.732;9.248;2023-03-03T06:53:20;1.40;99.90
7307;DHT22;3694;48.732;9.248;2023-03-03T06:55:45;1.40;99.90
7307;DHT22;3694;48.732;9.248;2023-03-03T06:58:16;1.40;99.90
7307;DHT22;3694;48.732;9.248;2023-03-03T07:00:44;1.40;99.90
7307;DHT22;3694;48.732;9.248;2023-03-03T07:03:18;1.50;99.90
7307;DHT22;3694;48.732;9.248;2023-03-03T07:05:45;1.70;99.90
7307;DHT22;3694;48.732;9.248;2023-03-03T07:08:17;1.60;99.90
7307;DHT22;3694;48.732;9.248;2023-03-03T07:10:43;1.60;99.90
7307;DHT22;3694;48.732;9.248;2023-03-03T07:13:27;1.60;99.90
7307;DHT22;3694;48.732;9.248;2023-03-03T07:15:54;1.70;99.90
7307;DHT22;3694;48.732;9.248;2023-03-03T07:18:39;1.80;99.90
7307;DHT22;3694;48.732;9.248;2023-03-03T07:21:16;1.70;99.90
7307;DHT22;3694;48.732;9.248;2023-03-03T07:23:43;1.80;99.90
7307;DHT22;3694;48.732;9.248;2023-03-03T07:26:12;1.90;99.90
7307;DHT22;3694;48.732;9.248;2023-03-03T07:28:41;1.90;99.90
7307;DHT22;3694;48.732;9.248;2023-03-03T07:33:46;2.10;99.90
7307;DHT22;3694;48.732;9.248;2023-03-03T07:36:30;2.20;99.90
7307;DHT22;3694;48.732;9.248;2023-03-03T07:38:59;2.40;99.90
7307;DHT22;3694;48.732;9.248;2023-03-03T07:41:26;2.50;99.70
7307;DHT22;3694;48.732;9.248;2023-03-03T07:43:54;2.60;99.70
7307;DHT22;3694;48.732;9.248;2023-03-03T07:46:43;2.70;99.90
7307;DHT22;3694;48.732;9.248;2023-03-03T07:51:44;3.10;98.80
7307;DHT22;3694;48.732;9.248;2023-03-03T07:54:34;3.30;98.30
7307;DHT22;3694;48.732;9.248;2023-03-03T07:57:22;3.50;97.90
7307;DHT22;3694;48.732;9.248;2023-03-03T08:00:03;3.60;98.10
7307;DHT22;3694;48.732;9.248;2023-03-03T08:07:52;3.90;96.50
7307;DHT22;3694;48.732;9.248;2023-03-03T08:10:29;3.90;96.40
7307;DHT22;3694;48.732;9.248;2023-03-03T08:12:57;4.20;96.40
7307;DHT22;3694;48.732;9.248;2023-03-03T08:15:29;4.30;95.70
7307;DHT22;3694;48.732;9.248;2023-03-03T08:17:56;4.10;95.50
7307;DHT22;3694;48.732;9.248;2023-03-03T08:20:37;4.10;95.70
7307;DHT22;3694;48.732;9.248;2023-03-03T08:23:03;4.00;95.40
7307;DHT22;3694;48.732;9.248;2023-03-03T08:25:28;3.90;95.60
7307;DHT22;3694;48.732;9.248;2023-03-03T08:27:54;3.50;95.80
7307;DHT22;3694;48.732;9.248;2023-03-03T08:30:19;3.50;96.10
7307;DHT22;3694;48.732;9.248;2023-03-03T08:32:45;3.60;95.90
7307;DHT22;3694;48.732;9.248;2023-03-03T08:35:10;4.00;95.70
7307;DHT22;3694;48.732;9.248;2023-03-03T08:37:36;4.50;94.70
7307;DHT22;3694;48.732;9.248;2023-03-03T08:40:02;4.50;94.80
7307;DHT22;3694;48.732;9.248;2023-03-03T08:42:28;5.00;93.40
7307;DHT22;3694;48.732;9.248;2023-03-03T08:44:54;5.20;92.50
7307;DHT22;3694;48.732;9.248;2023-03-03T08:47:20;5.40;92.80
7307;DHT22;3694;48.732;9.248;2023-03-03T08:49:45;5.50;92.70
7307;DHT22;3694;48.732;9.248;2023-03-03T08:52:11;5.50;91.90
7307;DHT22;3694;48.732;9.248;2023-03-03T08:54:37;5.60;91.60
7307;DHT22;3694;48.732;9.248;2023-03-03T08:57:02;5.80;91.80
7307;DHT22;3694;48.732;9.248;2023-03-03T08:59:28;5.90;91.80
7307;DHT22;3694;48.732;9.248;2023-03-03T09:01:53;6.00;91.30
7307;DHT22;3694;48.732;9.248;2023-03-03T09:04:19;6.10;91.50
7307;DHT22;3694;48.732;9.248;2023-03-03T09:06:44;6.20;90.70
7307;DHT22;3694;48.732;9.248;2023-03-03T09:09:10;6.00;90.70
7307;DHT22;3694;48.732;9.248;2023-03-03T09:11:35;5.90;90.80
7307;DHT22;3694;48.732;9.248;2023-03-03T09:14:10;5.90;91.30
7307;DHT22;3694;48.732;9.248;2023-03-03T09:16:44;5.80;91.60
7307;DHT22;3694;48.732;9.248;2023-03-03T09:19:27;5.70;91.70
7307;DHT22;3694;48.732;9.248;2023-03-03T09:22:21;5.60;91.70
7307;DHT22;3694;48.732;9.248;2023-03-03T09:24:48;5.60;92.20
7307;DHT22;3694;48.732;9.248;2023-03-03T09:27:26;5.70;91.90
7307;DHT22;3694;48.732;9.248;2023-03-03T09:29:51;5.80;91.80
7307;DHT22;3694;48.732;9.248;2023-03-03T09:32:32;5.80;92.10
7307;DHT22;3694;48.732;9.248;2023-03-03T09:34:59;6.00;91.30
7307;DHT22;3694;48.732;9.248;2023-03-03T09:37:35;6.10;91.30
7307;DHT22;3694;48.732;9.248;2023-03-03T09:43:08;6.10;91.50
7307;DHT22;3694;48.732;9.248;2023-03-03T09:45:52;5.90;91.40
7307;DHT22;3694;48.732;9.248;2023-03-03T09:53:58;6.20;91.20
7307;DHT22;3694;48.732;9.248;2023-03-03T10:02:28;6.80;90.50
7307;DHT22;3694;48.732;9.248;2023-03-03T10:05:03;7.00;89.50
7307;DHT22;3694;48.732;9.248;2023-03-03T10:19:02;7.30;90.30
7307;DHT22;3694;48.732;9.248;2023-03-03T10:22:53;7.20;90.20
7307;DHT22;3694;48.732;9.248;2023-03-03T10:28:03;7.00;89.40
7307;DHT22;3694;48.732;9.248;2023-03-03T10:30:53;7.20;90.10
7307;DHT22;3694;48.732;9.248;2023-03-03T10:36:54;7.50;87.90
7307;DHT22;3694;48.732;9.248;2023-03-03T10:39:31;7.60;89.40
7307;DHT22;3694;48.732;9.248;2023-03-03T10:42:25;7.70;88.40
7307;DHT22;3694;48.732;9.248;2023-03-03T10:47:51;7.80;89.10
7307;DHT22;3694;48.732;9.248;2023-03-03T10:51:26;7.60;86.60
7307;DHT22;3694;48.732;9.248;2023-03-03T10:53:57;7.50;86.10
7307;DHT22;3694;48.732;9.248;2023-03-03T10:56:55;7.70;86.40
7307;DHT22;3694;48.732;9.248;2023-03-03T11:02:33;8.10;86.70
7307;DHT22;3694;48.732;9.248;2023-03-03T11:05:15;8.00;85.80
7307;DHT22;3694;48.732;9.248;2023-03-03T11:07:51;8.00;84.80
7307;DHT22;3694;48.732;9.248;2023-03-03T11:10:45;8.10;83.30
7307;DHT22;3694;48.732;9.248;2023-03-03T11:16:14;8.50;86.00
7307;DHT22;3694;48.732;9.248;2023-03-03T11:19:04;8.60;82.70
7307;DHT22;3694;48.732;9.248;2023-03-03T11:32:31;8.10;80.90
7307;DHT22;3694;48.732;9.248;2023-03-03T11:35:17;8.00;83.90
7307;DHT22;3694;48.732;9.248;2023-03-03T11:43:46;7.60;85.00
7307;DHT22;3694;48.732;9.248;2023-03-03T11:46:14;7.50;84.40
7307;DHT22;3694;48.732;9.248;2023-03-03T11:54:11;7.80;87.80
7307;DHT22;3694;48.732;9.248;2023-03-03T11:56:41;8.10;87.10
7307;DHT22;3694;48.732;9.248;2023-03-03T11:59:34;8.30;88.40
7307;DHT22;3694;48.732;9.248;2023-03-03T12:02:03;8.10;82.20
7307;DHT22;3694;48.732;9.248;2023-03-03T12:04:38;7.90;83.90
7307;DHT22;3694;48.732;9.248;2023-03-03T12:07:16;7.60;84.70
7307;DHT22;3694;48.732;9.248;2023-03-03T12:09:51;7.20;82.70
7307;DHT22;3694;48.732;9.248;2023-03-03T12:12:26;7.10;85.90
7307;DHT22;3694;48.732;9.248;2023-03-03T12:15:21;7.20;84.60
7307;DHT22;3694;48.732;9.248;2023-03-03T12:23:44;7.20;82.90
7307;DHT22;3694;48.732;9.248;2023-03-03T12:28:57;7.20;83.70
7307;DHT22;3694;48.732;9.248;2023-03-03T12:34:41;7.40;83.90
7307;DHT22;3694;48.732;9.248;2023-03-03T12:37:27;7.50;84.80
7307;DHT22;3694;48.732;9.248;2023-03-03T12:48:50;8.00;85.10
7307;DHT22;3694;48.732;9.248;2023-03-03T12:56:44;8.00;84.00
7307;DHT22;3694;48.732;9.248;2023-03-03T13:07:34;8.40;80.40
7307;DHT22;3694;48.732;9.248;2023-03-03T13:10:07;8.30;83.00
7307;DHT22;3694;48.732;9.248;2023-03-03T13:15:26;8.60;82.40
7307;DHT22;3694;48.732;9.248;2023-03-03T13:18:59;8.60;79.50
7307;DHT22;3694;48.732;9.248;2023-03-03T13:21:14;8.60;81.00
7307;DHT22;3694;48.732;9.248;2023-03-03T13:23:57;8.70;82.40
7307;DHT22;3694;48.732;9.248;2023-03-03T13:26:30;8.80;80.50
7307;DHT22;3694;48.732;9.248;2023-03-03T13:29:08;8.70;78.20
7307;DHT22;3694;48.732;9.248;2023-03-03T13:31:40;8.90;80.60
7307;DHT22;3694;48.732;9.248;2023-03-03T13:34:27;8.90;80.70
7307;DHT22;3694;48.732;9.248;2023-03-03T13:37:04;8.80;80.80
7307;DHT22;3694;48.732;9.248;2023-03-03T13:39:36;8.70;79.20
7307;DHT22;3694;48.732;9.248;2023-03-03T13:44:41;8.60;79.60
7307;DHT22;3694;48.732;9.248;2023-03-03T13:47:26;8.60;79.90
7307;DHT22;3694;48.732;9.248;2023-03-03T13:49:58;8.70;81.20
7307;DHT22;3694;48.732;9.248;2023-03-03T13:52:31;8.60;80.00
7307;DHT22;3694;48.732;9.248;2023-03-03T13:55:21;8.60;79.00
7307;DHT22;3694;48.732;9.248;2023-03-03T14:01:15;8.80;81.40
7307;DHT22;3694;48.732;9.248;2023-03-03T14:06:29;8.80;77.70
7307;DHT22;3694;48.732;9.248;2023-03-03T14:09:22;8.70;78.50
7307;DHT22;3694;48.732;9.248;2023-03-03T14:12:25;8.60;78.30
7307;DHT22;3694;48.732;9.248;2023-03-03T14:17:31;8.70;79.30
7307;DHT22;3694;48.732;9.248;2023-03-03T14:25:03;8.60;78.60
7307;DHT22;3694;48.732;9.248;2023-03-03T14:33:04;8.50;78.80
7307;DHT22;3694;48.732;9.248;2023-03-03T14:35:47;8.40;79.00
7307;DHT22;3694;48.732;9.248;2023-03-03T14:38:20;8.30;78.10
7307;DHT22;3694;48.732;9.248;2023-03-03T14:40:48;8.30;78.90
7307;DHT22;3694;48.732;9.248;2023-03-03T14:43:54;8.30;81.10
7307;DHT22;3694;48.732;9.248;2023-03-03T14:46:37;8.30;80.20
7307;DHT22;3694;48.732;9.248;2023-03-03T14:49:29;8.30;78.10
7307;DHT22;3694;48.732;9.248;2023-03-03T14:52:11;8.30;78.80
7307;DHT22;3694;48.732;9.248;2023-03-03T14:54:44;8.20;79.90
7307;DHT22;3694;48.732;9.248;2023-03-03T14:57:17;8.10;78.00
7307;DHT22;3694;48.732;9.248;2023-03-03T15:00:01;8.10;79.10
7307;DHT22;3694;48.732;9.248;2023-03-03T15:05:30;8.10;78.80
7307;DHT22;3694;48.732;9.248;2023-03-03T15:11:12;7.80;77.70
7307;DHT22;3694;48.732;9.248;2023-03-03T15:13:38;7.70;78.30
7307;DHT22;3694;48.732;9.248;2023-03-03T15:16:21;7.60;80.10
7307;DHT22;3694;48.732;9.248;2023-03-03T15:19:13;7.60;80.00
7307;DHT22;3694;48.732;9.248;2023-03-03T15:22:10;7.50;78.60
7307;DHT22;3694;48.732;9.248;2023-03-03T15:24:47;7.40;78.00
7307;DHT22;3694;48.732;9.248;2023-03-03T15:27:27;7.30;78.00
7307;DHT22;3694;48.732;9.248;2023-03-03T15:30:24;7.30;79.00
7307;DHT22;3694;48.732;9.248;2023-03-03T15:33:11;7.30;80.40
7307;DHT22;3694;48.732;9.248;2023-03-03T15:35:51;7.30;78.80
7307;DHT22;3694;48.732;9.248;2023-03-03T15:38:33;7.30;78.30
7307;DHT22;3694;48.732;9.248;2023-03-03T15:41:07;7.20;78.10
7307;DHT22;3694;48.732;9.248;2023-03-03T15:44:20;7.10;78.90
7307;DHT22;3694;48.732;9.248;2023-03-03T15:49:55;7.10;79.70
7307;DHT22;3694;48.732;9.248;2023-03-03T16:01:11;6.70;80.30
7307;DHT22;3694;48.732;9.248;2023-03-03T16:03:54;6.70;80.10
7307;DHT22;3694;48.732;9.248;2023-03-03T16:09:23;6.70;80.00
7307;DHT22;3694;48.732;9.248;2023-03-03T16:12:16;6.70;80.30
7307;DHT22;3694;48.732;9.248;2023-03-03T16:15:22;6.60;80.50
7307;DHT22;3694;48.732;9.248;2023-03-03T16:18:10;6.60;80.90
7307;DHT22;3694;48.732;9.248;2023-03-03T16:31:35;6.20;82.00
7307;DHT22;3694;48.732;9.248;2023-03-03T16:36:53;5.90;83.20
7307;DHT22;3694;48.732;9.248;2023-03-03T16:39:30;5.80;83.90
7307;DHT22;3694;48.732;9.248;2023-03-03T16:56:03;5.20;85.90
7307;DHT22;3694;48.732;9.248;2023-03-03T17:06:32;4.80;87.60
7307;DHT22;3694;48.732;9.248;2023-03-03T17:16:58;4.50;88.90
7307;DHT22;3694;48.732;9.248;2023-03-03T17:19:48;4.30;89.40
7307;DHT22;3694;48.732;9.248;2023-03-03T17:25:20;4.10;90.70
7307;DHT22;3694;48.732;9.248;2023-03-03T17:28:03;3.80;91.10
7307;DHT22;3694;48.732;9.248;2023-03-03T17:33:31;3.80;92.10
7307;DHT22;3694;48.732;9.248;2023-03-03T17:39:16;4.00;92.10
7307;DHT22;3694;48.732;9.248;2023-03-03T17:42:01;3.90;92.30
7307;DHT22;3694;48.732;9.248;2023-03-03T17:47:45;3.70;92.90
7307;DHT22;3694;48.732;9.248;2023-03-03T17:56:02;3.90;92.90
7307;DHT22;3694;48.732;9.248;2023-03-03T17:58:59;3.80;93.10
7307;DHT22;3694;48.732;9.248;2023-03-03T18:04:23;3.70;93.60
7307;DHT22;3694;48.732;9.248;2023-03-03T18:09:54;3.50;93.80
7307;DHT22;3694;48.732;9.248;2023-03-03T18:17:34;3.30;94.70
7307;DHT22;3694;48.732;9.248;2023-03-03T18:20:38;3.20;95.00
7307;DHT22;3694;48.732;9.248;2023-03-03T18:23:32;3.20;95.30
7307;DHT22;3694;48.732;9.248;2023-03-03T18:26:27;3.20;95.20
7307;DHT22;3694;48.732;9.248;2023-03-03T18:28:50;3.20;95.40
7307;DHT22;3694;48.732;9.248;2023-03-03T18:31:26;3.30;95.60
7307;DHT22;3694;48.732;9.248;2023-03-03T18:34:08;3.30;95.60
7307;DHT22;3694;48.732;9.248;2023-03-03T18:36:36;3.10;95.90
7307;DHT22;3694;48.732;9.248;2023-03-03T18:39:04;3.20;96.00
7307;DHT22;3694;48.732;9.248;2023-03-03T18:42:03;3.00;96.10
7307;DHT22;3694;48.732;9.248;2023-03-03T18:44:29;2.90;96.30
7307;DHT22;3694;48.732;9.248;2023-03-03T18:46:56;2.80;96.70
7307;DHT22;3694;48.732;9.248;2023-03-03T18:50:03;2.60;97.00
7307;DHT22;3694;48.732;9.248;2023-03-03T18:52:32;2.60;97.50
7307;DHT22;3694;48.732;9.248;2023-03-03T18:55:21;2.50;97.80
7307;DHT22;3694;48.732;9.248;2023-03-03T19:03:37;2.50;98.40
7307;DHT22;3694;48.732;9.248;2023-03-03T19:09:05;2.30;98.90
7307;DHT22;3694;48.732;9.248;2023-03-03T19:11:40;2.20;99.20
7307;DHT22;3694;48.732;9.248;2023-03-03T19:16:52;2.40;99.50
7307;DHT22;3694;48.732;9.248;2023-03-03T19:19:20;2.50;99.40
7307;DHT22;3694;48.732;9.248;2023-03-03T19:22:21;2.50;99.30
7307;DHT22;3694;48.732;9.248;2023-03-03T19:27:41;2.60;99.40
7307;DHT22;3694;48.732;9.248;2023-03-03T19:30:13;2.60;99.40
7307;DHT22;3694;48.732;9.248;2023-03-03T19:33:12;2.60;99.80
7307;DHT22;3694;48.732;9.248;2023-03-03T20:00:40;1.80;99.90
7307;DHT22;3694;48.732;9.248;2023-03-03T20:09:03;1.90;99.90
7307;DHT22;3694;48.732;9.248;2023-03-03T20:14:51;1.90;99.90
7307;DHT22;3694;48.732;9.248;2023-03-03T20:25:35;1.90;99.90
7307;DHT22;3694;48.732;9.248;2023-03-03T20:33:49;1.80;99.90
7307;DHT22;3694;48.732;9.248;2023-03-03T20:36:44;1.80;99.90
7307;DHT22;3694;48.732;9.248;2023-03-03T20:42:49;1.90;99.90
7307;DHT22;3694;48.732;9.248;2023-03-03T20:48:17;1.90;99.90
7307;DHT22;3694;48.732;9.248;2023-03-03T20:51:09;1.90;99.90
7307;DHT22;3694;48.732;9.248;2023-03-03T20:57:13;2.00;99.90
7307;DHT22;3694;48.732;9.248;2023-03-03T21:02:26;2.00;99.90
7307;DHT22;3694;48.732;9.248;2023-03-03T21:05:16;1.90;99.90
7307;DHT22;3694;48.732;9.248;2023-03-03T21:07:59;1.80;99.90
7307;DHT22;3694;48.732;9.248;2023-03-03T21:10:30;1.80;99.90
7307;DHT22;3694;48.732;9.248;2023-03-03T21:13:25;1.80;99.90
7307;DHT22;3694;48.732;9.248;2023-03-03T21:16:05;1.80;99.90
7307;DHT22;3694;48.732;9.248;2023-03-03T21:18:33;1.80;99.90
7307;DHT22;3694;48.732;9.248;2023-03-03T21:20:59;1.70;99.90
7307;DHT22;3694;48.732;9.248;2023-03-03T21:23:25;1.70;99.90
7307;DHT22;3694;48.732;9.248;2023-03-03T21:25:53;1.70;99.90
7307;DHT22;3694;48.732;9.248;2023-03-03T21:31:13;1.70;99.90
7307;DHT22;3694;48.732;9.248;2023-03-03T21:36:22;1.90;99.90
7307;DHT22;3694;48.732;9.248;2023-03-03T21:38:49;2.00;99.90
7307;DHT22;3694;48.732;9.248;2023-03-03T21:41:16;2.10;99.90
7307;DHT22;3694;48.732;9.248;2023-03-03T21:43:45;2.10;99.90
7307;DHT22;3694;48.732;9.248;2023-03-03T21:46:11;2.20;99.90
7307;DHT22;3694;48.732;9.248;2023-03-03T21:48:40;2.30;99.90
7307;DHT22;3694;48.732;9.248;2023-03-03T21:51:07;2.30;99.90
7307;DHT22;3694;48.732;9.248;2023-03-03T21:53:33;2.40;99.90
7307;DHT22;3694;48.732;9.248;2023-03-03T21:55:59;2.40;99.90
7307;DHT22;3694;48.732;9.248;2023-03-03T21:58:25;2.40;99.90
7307;DHT22;3694;48.732;9.248;2023-03-03T22:00:50;2.20;99.90
7307;DHT22;3694;48.732;9.248;2023-03-03T22:03:16;2.10;99.90
7307;DHT22;3694;48.732;9.248;2023-03-03T22:05:44;2.10;99.90
7307;DHT22;3694;48.732;9.248;2023-03-03T22:08:10;2.10;99.90